Time;durP1;ratioP1;P1;durP2;ratioP2;P2;SDS_P1;SDS_P2;PMS_P1;PMS_P2;Temp;Humidity;BMP_temperature;BMP_pressure;BME280_temperature;BME280_humidity;BME280_pressure;Samples;Min_cycle;Max_cycle;Signal;HPM_P1;HPM_P2
2023/09/27 00:00:21;;;;;;;3.13;2.50;;;;;;;8.03;100.00;93536.19;2094183;28;20458;-83
2023/09/27 00:01:23;;;;;;;3.30;2.53;;;;;;;7.94;100.00;93527.88;2098303;28;20385;-80
2023/09/27 00:02:24;;;;;;;3.40;2.72;;;;;;;7.94;100.00;93525.22;2094517;28;20639;-81
2023/09/27 00:03:25;;;;;;;3.78;2.72;;;;;;;7.93;100.00;93531.69;2090159;28;20160;-81
2023/09/27 00:04:28;;;;;;;4.90;2.60;;;;;;;7.90;100.00;93525.25;2105879;28;20024;-81
2023/09/27 00:05:29;;;;;;;4.88;2.75;;;;;;;7.91;100.00;93531.31;2098514;28;20055;-82
2023/09/27 00:06:30;;;;;;;5.90;2.83;;;;;;;7.86;100.00;93537.81;2098477;28;20820;-82
2023/09/27 00:07:32;;;;;;;3.35;2.30;;;;;;;7.86;100.00;93529.03;2092744;28;20035;-81
2023/09/27 00:08:33;;;;;;;3.40;2.55;;;;;;;7.79;100.00;93533.25;2098469;28;20405;-82
2023/09/27 00:09:34;;;;;;;4.55;2.67;;;;;;;7.69;100.00;93522.69;2106527;28;20052;-82
2023/09/27 00:10:36;;;;;;;5.20;2.47;;;;;;;7.81;100.00;93524.88;2098039;28;20025;-81
2023/09/27 00:11:37;;;;;;;3.67;2.70;;;;;;;7.78;100.00;93526.44;2106502;28;20036;-82
2023/09/27 00:12:40;;;;;;;4.03;2.72;;;;;;;7.80;100.00;93529.44;2096212;28;20418;-81
2023/09/27 00:13:41;;;;;;;4.45;2.60;;;;;;;7.69;100.00;93526.09;2106742;28;20063;-80
2023/09/27 00:14:42;;;;;;;5.68;2.90;;;;;;;7.74;100.00;93523.03;2106766;28;20377;-80
2023/09/27 00:15:43;;;;;;;2.70;2.47;;;;;;;7.66;100.00;93532.19;2102062;28;20027;-81
2023/09/27 00:16:44;;;;;;;5.63;2.50;;;;;;;7.69;100.00;93528.00;2098250;28;20017;-82
2023/09/27 00:17:46;;;;;;;4.72;3.00;;;;;;;7.67;100.00;93522.28;2106326;28;20024;-81
2023/09/27 00:18:48;;;;;;;4.15;2.75;;;;;;;7.69;100.00;93523.44;2112877;28;20809;-81
2023/09/27 00:19:49;;;;;;;4.50;2.50;;;;;;;7.75;100.00;93529.84;2106545;28;20031;-81
2023/09/27 00:20:51;;;;;;;4.40;3.25;;;;;;;7.77;100.00;93526.81;2089831;28;20405;-81
2023/09/27 00:21:52;;;;;;;5.30;2.67;;;;;;;7.69;100.00;93526.09;2090019;28;20045;-81
2023/09/27 00:22:55;;;;;;;4.55;3.10;;;;;;;7.52;100.00;93522.34;2097823;28;20032;-81
2023/09/27 00:23:56;;;;;;;5.15;3.17;;;;;;;7.46;100.00;93520.47;2092523;28;20052;-82
2023/09/27 00:24:59;;;;;;;2.90;2.60;;;;;;;7.47;100.00;93528.09;2097987;28;20055;-82
2023/09/27 00:26:00;;;;;;;4.93;2.75;;;;;;;7.34;100.00;93526.97;2104504;28;20124;-81
2023/09/27 00:27:10;;;;;;;3.78;2.33;;;;;;;7.26;100.00;93528.91;2106179;28;20031;-81
2023/09/27 00:28:11;;;;;;;4.88;2.80;;;;;;;7.31;100.00;93520.53;2100596;28;20021;-81
2023/09/27 00:29:12;;;;;;;5.32;2.60;;;;;;;7.39;100.00;93525.81;2100968;28;20052;-81
2023/09/27 00:30:14;;;;;;;5.53;3.00;;;;;;;7.35;100.00;93522.41;2106227;28;20036;-83
2023/09/27 00:31:15;;;;;;;3.53;2.63;;;;;;;7.31;100.00;93525.09;2106122;28;20024;-80
2023/09/27 00:32:17;;;;;;;4.72;2.70;;;;;;;7.33;100.00;93525.44;2100654;28;20048;-83
2023/09/27 00:33:19;;;;;;;6.38;3.03;;;;;;;7.23;100.00;93521.69;2089808;28;20028;-81
2023/09/27 00:34:20;;;;;;;6.53;2.70;;;;;;;7.21;100.00;93518.66;2089362;28;20054;-81
2023/09/27 00:35:22;;;;;;;4.05;3.05;;;;;;;7.32;100.00;93518.63;2097773;28;20028;-83
2023/09/27 00:36:23;;;;;;;9.13;2.75;;;;;;;7.29;100.00;93516.75;2106279;28;20024;-81
2023/09/27 00:37:24;;;;;;;3.50;2.53;;;;;;;7.33;100.00;93525.44;2101788;28;20114;-82
2023/09/27 00:38:25;;;;;;;3.97;2.45;;;;;;;7.32;100.00;93521.28;2097778;28;20024;-81
2023/09/27 00:39:26;;;;;;;4.50;2.80;;;;;;;7.39;100.00;93520.50;2105913;28;20584;-82
2023/09/27 00:40:28;;;;;;;4.97;2.97;;;;;;;7.34;100.00;93521.66;2097683;28;20024;-82
2023/09/27 00:41:29;;;;;;;3.33;2.63;;;;;;;7.31;100.00;93515.19;2106253;28;20032;-82
2023/09/27 00:42:30;;;;;;;4.30;2.72;;;;;;;7.24;100.00;93527.75;2101100;28;20142;-82
2023/09/27 00:43:34;;;;;;;5.22;2.67;;;;;;;7.21;100.00;93521.31;2089369;28;20020;-81
2023/09/27 00:44:35;;;;;;;4.13;2.80;;;;;;;7.29;100.00;93519.41;2106709;27;20020;-80
2023/09/27 00:45:36;;;;;;;6.47;2.50;;;;;;;7.14;100.00;93520.56;2105705;28;20028;-82
2023/09/27 00:46:38;;;;;;;5.68;2.75;;;;;;;7.16;100.00;93527.03;2097933;28;20081;-81
2023/09/27 00:47:41;;;;;;;4.10;2.58;;;;;;;7.17;100.00;93523.22;2106357;28;20065;-80
2023/09/27 00:48:43;;;;;;;6.88;2.90;;;;;;;7.10;100.00;93523.22;2114791;28;20020;-81
2023/09/27 00:49:44;;;;;;;6.38;2.70;;;;;;;7.17;100.00;93525.88;2106051;28;20024;-80
2023/09/27 00:50:45;;;;;;;5.50;2.67;;;;;;;7.35;100.00;93520.50;2097053;28;20449;-80
2023/09/27 00:51:48;;;;;;;3.40;2.38;;;;;;;7.34;100.00;93526.97;2106295;28;20040;-80
2023/09/27 00:52:52;;;;;;;5.22;2.58;;;;;;;7.31;100.00;93522.41;2105682;28;20023;-82
2023/09/27 00:53:54;;;;;;;6.30;3.10;;;;;;;7.20;100.00;93527.00;2098281;28;20174;-80
2023/09/27 00:54:57;;;;;;;3.55;2.50;;;;;;;7.07;100.00;93519.44;2106306;28;20031;-82
2023/09/27 00:55:58;;;;;;;4.00;2.63;;;;;;;7.13;100.00;93521.72;2103353;28;20016;-80
2023/09/27 00:57:03;;;;;;;4.13;2.40;;;;;;;7.17;100.00;93533.09;2106459;28;20101;-81
2023/09/27 00:58:05;;;;;;;4.85;2.72;;;;;;;7.16;100.00;93521.72;2098147;28;20447;-81
2023/09/27 00:59:07;;;;;;;6.65;2.80;;;;;;;7.04;100.00;93532.75;2104756;28;20097;-81
2023/09/27 01:00:10;;;;;;;4.07;2.35;;;;;;;7.01;100.00;93520.97;2114074;28;20023;-82
2023/09/27 01:01:12;;;;;;;3.88;2.53;;;;;;;7.07;100.00;93522.09;2097444;28;20031;-80
2023/09/27 01:02:17;;;;;;;3.22;2.33;;;;;;;6.95;100.00;93525.16;2094316;28;20021;-83
2023/09/27 01:03:19;;;;;;;3.75;2.70;;;;;;;6.99;100.00;93525.91;2101437;28;20392;-82
2023/09/27 01:04:20;;;;;;;3.15;2.20;;;;;;;7.05;100.00;93523.63;2097409;28;20474;-83
2023/09/27 01:05:21;;;;;;;4.15;2.60;;;;;;;7.07;100.00;93524.78;2097852;28;20020;-82
2023/09/27 01:06:23;;;;;;;3.03;2.60;;;;;;;7.13;100.00;93511.09;2114058;28;20023;-82
2023/09/27 01:07:24;;;;;;;4.78;2.67;;;;;;;7.15;100.00;93511.44;2094262;28;20032;-82
2023/09/27 01:08:25;;;;;;;5.53;2.92;;;;;;;7.03;100.00;93512.63;2089481;28;20028;-82
2023/09/27 01:09:26;;;;;;;3.50;2.25;;;;;;;7.06;100.00;93519.81;2089148;28;20095;-82
2023/09/27 01:10:28;;;;;;;4.10;2.40;;;;;;;7.01;100.00;93515.66;2098600;28;20108;-83
2023/09/27 01:11:30;;;;;;;4.20;2.55;;;;;;;7.03;100.00;93515.28;2097785;28;20428;-82
2023/09/27 01:12:32;;;;;;;4.57;2.92;;;;;;;7.05;100.00;93516.41;2106098;28;20454;-81
2023/09/27 01:13:39;;;;;;;2.97;2.50;;;;;;;7.07;100.00;93510.72;2114142;28;20332;-83
2023/09/27 01:14:40;;;;;;;4.82;2.40;;;;;;;7.06;100.00;93519.81;2090793;28;20040;-82
2023/09/27 01:15:41;;;;;;;4.43;2.28;;;;;;;6.97;100.00;93509.59;2092216;28;20016;-83
2023/09/27 01:16:42;;;;;;;3.67;2.20;;;;;;;6.99;100.00;93509.97;2089199;28;20021;-82
2023/09/27 01:17:57;;;;;;;5.88;2.75;;;;;;;7.03;100.00;93504.66;2094516;28;20016;-82
2023/09/27 01:19:02;;;;;;;6.00;2.53;;;;;;;7.00;100.00;93505.41;2099226;28;20078;-82
2023/09/27 01:20:11;;;;;;;2.35;2.13;;;;;;;7.06;100.00;93512.59;2097874;28;20116;-81
2023/09/27 01:21:12;;;;;;;3.45;2.17;;;;;;;7.02;100.00;93508.44;2113860;27;20035;-81
2023/09/27 01:22:13;;;;;;;2.97;1.90;;;;;;;7.15;100.00;93512.19;2113799;28;20043;-81
2023/09/27 01:23:30;;;;;;;4.93;1.98;;;;;;;7.13;100.00;93514.50;2095261;28;20025;-84
2023/09/27 01:24:34;;;;;;;3.22;2.05;;;;;;;7.15;100.00;93508.78;2101275;28;20043;-83
2023/09/27 01:25:37;;;;;;;3.72;2.20;;;;;;;7.15;100.00;93517.50;2105944;28;20016;-83
2023/09/27 01:26:39;;;;;;;2.72;1.95;;;;;;;7.13;100.00;93514.50;2105771;28;20016;-81
2023/09/27 01:27:41;;;;;;;3.20;2.13;;;;;;;7.12;100.00;93514.88;2092380;28;20029;-81
2023/09/27 01:28:46;;;;;;;2.92;2.20;;;;;;;7.13;100.00;93524.38;2093287;28;20497;-81
2023/09/27 01:29:47;;;;;;;3.63;2.20;;;;;;;7.14;100.00;93523.22;2098560;28;20024;-82
2023/09/27 01:30:48;;;;;;;3.63;2.45;;;;;;;7.11;100.00;93524.72;2100701;28;20103;-81
2023/09/27 01:31:50;;;;;;;4.88;2.50;;;;;;;7.14;100.00;93521.31;2093195;28;20032;-82
2023/09/27 01:32:51;;;;;;;3.83;2.15;;;;;;;7.02;100.00;93519.84;2105732;28;20015;-82
2023/09/27 01:33:52;;;;;;;4.05;2.50;;;;;;;6.92;100.00;93517.94;2097556;28;20086;-81
2023/09/27 01:34:53;;;;;;;3.38;2.20;;;;;;;7.02;100.00;93519.06;2091901;28;20021;-82
2023/09/27 01:35:57;;;;;;;4.55;2.60;;;;;;;7.12;100.00;93512.22;2093422;28;20028;-82
2023/09/27 01:36:58;;;;;;;3.25;2.20;;;;;;;7.17;100.00;93519.81;2114717;27;20020;-82
2023/09/27 01:38:00;;;;;;;2.78;2.03;;;;;;;7.23;100.00;93518.25;2122263;27;20019;-81
2023/09/27 01:39:02;;;;;;;3.35;2.30;;;;;;;7.11;100.00;93522.06;2114078;28;20028;-82
2023/09/27 01:40:16;;;;;;;7.43;2.58;;;;;;;7.10;100.00;93519.81;2114383;27;20023;-81
2023/09/27 01:41:19;;;;;;;2.70;2.10;;;;;;;7.01;100.00;93528.94;2107525;28;20153;-81
2023/09/27 01:42:21;;;;;;;3.88;2.30;;;;;;;7.02;100.00;93527.81;2097581;28;20051;-82
2023/09/27 01:43:23;;;;;;;2.38;1.85;;;;;;;7.09;100.00;93529.69;2106096;27;20034;-82
2023/09/27 01:44:23;;;;;;;3.22;2.00;;;;;;;7.01;100.00;93533.50;2099615;28;20385;-81
2023/09/27 01:45:25;;;;;;;2.00;1.85;;;;;;;7.04;100.00;93532.75;2089198;28;20028;-81
2023/09/27 01:46:26;;;;;;;3.33;2.13;;;;;;;6.97;100.00;93533.50;2105747;28;20111;-83
2023/09/27 01:47:27;;;;;;;3.10;2.42;;;;;;;6.94;100.00;93525.56;2113614;28;20030;-83
2023/09/27 01:48:28;;;;;;;1.75;1.65;;;;;;;7.04;100.00;93528.19;2097326;28;20024;-82
2023/09/27 01:49:29;;;;;;;3.67;2.35;;;;;;;6.94;100.00;93526.31;2105497;28;20111;-82
2023/09/27 01:50:33;;;;;;;3.67;2.13;;;;;;;6.99;100.00;93533.88;2104198;28;20035;-82
2023/09/27 01:51:34;;;;;;;4.00;2.35;;;;;;;6.93;100.00;93532.75;2090154;28;20029;-82
2023/09/27 01:52:35;;;;;;;3.15;1.98;;;;;;;6.95;100.00;93530.47;2101565;28;20093;-83
2023/09/27 01:53:36;;;;;;;3.70;2.17;;;;;;;6.93;100.00;93540.72;2105702;28;20035;-81
2023/09/27 01:54:37;;;;;;;2.58;2.20;;;;;;;6.90;100.00;93530.88;2098301;28;20024;-82
2023/09/27 01:55:38;;;;;;;2.80;2.00;;;;;;;6.99;100.00;93533.88;2104576;28;20429;-81
2023/09/27 01:56:39;;;;;;;3.85;2.00;;;;;;;6.95;100.00;93532.38;2105531;28;20090;-81
2023/09/27 01:57:40;;;;;;;2.75;2.15;;;;;;;7.03;100.00;93529.31;2097263;28;20016;-83
2023/09/27 01:58:41;;;;;;;3.22;2.13;;;;;;;6.89;100.00;93531.22;2109888;28;20047;-82
2023/09/27 01:59:41;;;;;;;2.58;1.88;;;;;;;6.97;100.00;93528.19;2108831;28;20053;-81
2023/09/27 02:00:42;;;;;;;2.15;1.92;;;;;;;6.95;100.00;93535.03;2099053;28;20021;-83
2023/09/27 02:01:43;;;;;;;3.10;2.17;;;;;;;6.98;100.00;93528.94;2097139;28;20483;-82
2023/09/27 02:02:48;;;;;;;2.80;2.13;;;;;;;6.96;100.00;93528.56;2105129;28;20069;-81
2023/09/27 02:03:49;;;;;;;3.25;2.17;;;;;;;6.85;100.00;93530.47;2106135;28;20111;-81
2023/09/27 02:04:50;;;;;;;4.80;2.22;;;;;;;6.86;100.00;93526.69;2113772;28;20090;-81
2023/09/27 02:05:52;;;;;;;3.55;2.17;;;;;;;6.90;100.00;93535.44;2105302;28;20122;-82
2023/09/27 02:06:56;;;;;;;2.95;2.20;;;;;;;6.94;100.00;93533.53;2098275;28;20118;-82
2023/09/27 02:07:57;;;;;;;3.38;2.03;;;;;;;6.98;100.00;93537.69;2105681;28;20027;-81
2023/09/27 02:08:58;;;;;;;3.28;1.98;;;;;;;6.97;100.00;93536.16;2113635;28;20110;-81
2023/09/27 02:09:59;;;;;;;3.65;2.20;;;;;;;6.95;100.00;93533.13;2107696;28;20353;-82
2023/09/27 02:11:00;;;;;;;2.75;2.22;;;;;;;7.02;100.00;93535.78;2113463;28;20024;-83
2023/09/27 02:12:01;;;;;;;2.90;2.28;;;;;;;7.01;100.00;93541.47;2105432;28;20074;-82
2023/09/27 02:13:02;;;;;;;4.78;2.20;;;;;;;7.01;100.00;93523.63;2098266;28;20031;-82
2023/09/27 02:14:04;;;;;;;2.20;2.00;;;;;;;7.00;100.00;93521.34;2095218;28;20024;-81
2023/09/27 02:15:09;;;;;;;5.82;2.63;;;;;;;6.89;100.00;93521.38;2097042;28;20468;-81
2023/09/27 02:16:10;;;;;;;3.78;2.22;;;;;;;6.99;100.00;93515.28;2098394;28;20032;-81
2023/09/27 02:17:11;;;;;;;3.67;2.33;;;;;;;6.99;100.00;93527.81;2109265;28;20016;-81
2023/09/27 02:18:13;;;;;;;4.45;2.00;;;;;;;6.95;100.00;93522.50;2105388;28;20024;-81
2023/09/27 02:19:14;;;;;;;3.97;2.72;;;;;;;6.95;100.00;93519.84;2097033;28;20155;-81
2023/09/27 02:20:19;;;;;;;2.53;2.20;;;;;;;6.92;100.00;93522.50;2097328;28;20024;-82
2023/09/27 02:21:20;;;;;;;4.10;2.15;;;;;;;6.90;100.00;93530.88;2105443;28;20380;-81
2023/09/27 02:22:23;;;;;;;5.70;2.47;;;;;;;6.76;100.00;93528.97;2105646;28;20024;-82
2023/09/27 02:23:24;;;;;;;3.15;2.22;;;;;;;6.86;100.00;93524.03;2105673;28;20020;-81
2023/09/27 02:24:25;;;;;;;3.28;2.33;;;;;;;6.81;100.00;93525.19;2104748;28;20702;-82
2023/09/27 02:25:27;;;;;;;2.78;2.20;;;;;;;6.74;100.00;93523.28;2113927;28;20046;-81
2023/09/27 02:26:37;;;;;;;5.47;2.08;;;;;;;6.77;100.00;93527.84;2113347;28;20019;-82
2023/09/27 02:27:39;;;;;;;5.22;2.25;;;;;;;6.79;100.00;93527.44;2096403;28;20032;-83
2023/09/27 02:28:40;;;;;;;3.15;2.00;;;;;;;6.73;100.00;93536.94;2100952;28;20028;-81
2023/09/27 02:29:42;;;;;;;4.32;2.15;;;;;;;6.70;100.00;93535.81;2096703;28;20036;-82
2023/09/27 02:30:43;;;;;;;6.82;2.17;;;;;;;6.67;100.00;93531.28;2097156;28;20025;-83
2023/09/27 02:31:44;;;;;;;2.03;1.90;;;;;;;6.70;100.00;93545.66;2105473;28;20438;-82
2023/09/27 02:32:45;;;;;;;4.40;2.20;;;;;;;6.65;100.00;93544.16;2105340;28;20023;-81
2023/09/27 02:33:46;;;;;;;2.92;2.00;;;;;;;6.72;100.00;93546.06;2097191;28;20052;-81
2023/09/27 02:34:47;;;;;;;2.60;1.85;;;;;;;6.75;100.00;93548.69;2092431;28;20024;-81
2023/09/27 02:35:48;;;;;;;3.08;2.00;;;;;;;6.70;100.00;93535.81;2098732;28;20017;-82
2023/09/27 02:36:49;;;;;;;3.90;2.20;;;;;;;6.71;100.00;93533.91;2105478;28;20456;-81
2023/09/27 02:37:50;;;;;;;2.88;2.30;;;;;;;6.67;100.00;93525.97;2101746;28;20542;-82
2023/09/27 02:38:51;;;;;;;4.35;2.28;;;;;;;6.64;100.00;93525.94;2114052;28;20043;-82
2023/09/27 02:39:52;;;;;;;4.05;2.47;;;;;;;6.61;100.00;93534.66;2113622;28;20023;-82
2023/09/27 02:40:53;;;;;;;2.33;1.95;;;;;;;6.65;100.00;93528.22;2105227;28;20150;-82
2023/09/27 02:41:55;;;;;;;3.40;1.92;;;;;;;6.62;100.00;93528.97;2097261;28;20416;-81
2023/09/27 02:42:55;;;;;;;2.58;2.10;;;;;;;6.57;100.00;93532.00;2105592;28;20543;-81
2023/09/27 02:43:56;;;;;;;3.03;2.10;;;;;;;6.63;100.00;93537.69;2097179;28;20029;-81
2023/09/27 02:44:57;;;;;;;5.35;2.30;;;;;;;6.65;100.00;93538.09;2097182;28;20116;-82
2023/09/27 02:45:58;;;;;;;2.55;2.05;;;;;;;6.65;100.00;93532.78;2097298;28;20480;-83
2023/09/27 02:47:00;;;;;;;3.10;2.20;;;;;;;6.67;100.00;93535.78;2097124;28;20020;-81
2023/09/27 02:48:02;;;;;;;3.15;2.20;;;;;;;6.65;100.00;93535.44;2103288;28;20020;-82
2023/09/27 02:49:04;;;;;;;3.25;2.10;;;;;;;6.63;100.00;93540.34;2105466;28;20030;-83
2023/09/27 02:50:09;;;;;;;3.63;2.38;;;;;;;6.62;100.00;93530.88;2105735;28;20016;-83
2023/09/27 02:51:14;;;;;;;3.05;1.95;;;;;;;6.53;100.00;93542.63;2098048;28;20033;-82
2023/09/27 02:52:16;;;;;;;3.40;1.90;;;;;;;6.59;100.00;93535.06;2106167;28;20024;-81
2023/09/27 02:53:18;;;;;;;2.95;2.10;;;;;;;6.56;100.00;93535.81;2097299;28;20025;-81
2023/09/27 02:54:19;;;;;;;3.85;2.20;;;;;;;6.56;100.00;93538.47;2100065;28;20624;-82
2023/09/27 02:55:20;;;;;;;3.67;1.92;;;;;;;6.56;100.00;93531.25;2105481;28;20031;-81
2023/09/27 02:56:21;;;;;;;3.15;1.95;;;;;;;6.51;100.00;93534.28;2102766;28;20023;-82
2023/09/27 02:57:23;;;;;;;2.85;2.00;;;;;;;6.43;100.00;93529.34;2105065;28;20035;-83
2023/09/27 02:58:25;;;;;;;4.15;2.35;;;;;;;6.41;100.00;93528.97;2103943;28;20020;-83
2023/09/27 02:59:28;;;;;;;2.30;1.80;;;;;;;6.47;100.00;93522.91;2108954;28;20030;-82
2023/09/27 03:00:29;;;;;;;3.55;1.80;;;;;;;6.52;100.00;93533.16;2113724;28;20066;-81
2023/09/27 03:01:31;;;;;;;3.67;2.00;;;;;;;6.50;100.00;93527.47;2105451;28;20054;-81
2023/09/27 03:02:36;;;;;;;2.90;2.05;;;;;;;6.59;100.00;93531.66;2097149;28;20039;-82
2023/09/27 03:03:38;;;;;;;1.92;1.50;;;;;;;6.61;100.00;93532.78;2106230;28;20482;-82
2023/09/27 03:04:40;;;;;;;2.40;1.80;;;;;;;6.59;100.00;93535.06;2099968;28;20032;-81
2023/09/27 03:05:41;;;;;;;1.75;1.52;;;;;;;6.58;100.00;93530.88;2106306;28;20039;-85
2023/09/27 03:06:43;;;;;;;1.98;1.60;;;;;;;6.48;100.00;93537.69;2097180;28;20024;-82
2023/09/27 03:07:45;;;;;;;2.65;1.60;;;;;;;6.51;100.00;93538.84;2088846;28;20076;-83
2023/09/27 03:08:48;;;;;;;1.75;1.63;;;;;;;6.46;100.00;93534.69;2089162;28;20025;-82
2023/09/27 03:09:49;;;;;;;2.42;1.52;;;;;;;6.40;100.00;93538.81;2091386;28;20476;-84
2023/09/27 03:10:50;;;;;;;4.85;2.08;;;;;;;6.45;100.00;93530.50;2090401;28;20021;-83
2023/09/27 03:11:52;;;;;;;2.20;1.63;;;;;;;6.32;100.00;93534.63;2100190;28;20024;-81
2023/09/27 03:12:54;;;;;;;2.97;1.60;;;;;;;6.40;100.00;93530.09;2110426;28;20027;-83
2023/09/27 03:13:55;;;;;;;2.55;1.90;;;;;;;6.37;100.00;93533.53;2105412;28;20819;-82
2023/09/27 03:14:56;;;;;;;3.15;1.90;;;;;;;6.41;100.00;93532.41;2096988;28;20085;-82
2023/09/27 03:15:58;;;;;;;3.53;1.85;;;;;;;6.36;100.00;93530.09;2105372;28;20155;-83
2023/09/27 03:17:00;;;;;;;2.22;1.90;;;;;;;6.39;100.00;93532.00;2105724;28;20024;-85
2023/09/27 03:18:02;;;;;;;3.88;1.95;;;;;;;6.36;100.00;93532.75;2105264;28;20107;-83
2023/09/27 03:19:04;;;;;;;2.55;1.88;;;;;;;6.26;100.00;93528.94;2105544;28;20024;-81
2023/09/27 03:20:14;;;;;;;4.45;2.00;;;;;;;6.33;100.00;93528.22;2105462;28;20016;-83
2023/09/27 03:21:17;;;;;;;3.47;1.98;;;;;;;6.42;100.00;93528.59;2102431;28;20061;-81
2023/09/27 03:22:18;;;;;;;2.28;1.77;;;;;;;6.41;100.00;93527.09;2097278;28;20534;-82
2023/09/27 03:23:19;;;;;;;3.08;1.70;;;;;;;6.40;100.00;93530.84;2088577;28;20075;-81
2023/09/27 03:24:19;;;;;;;2.42;1.80;;;;;;;6.31;100.00;93533.13;2091118;28;20047;-82
2023/09/27 03:25:20;;;;;;;3.33;2.03;;;;;;;6.27;100.00;93529.72;2105255;28;20024;-82
2023/09/27 03:26:22;;;;;;;1.98;1.80;;;;;;;6.30;100.00;93519.09;2105117;28;20350;-83
2023/09/27 03:27:24;;;;;;;3.85;2.00;;;;;;;6.28;100.00;93526.69;2095730;28;20493;-82
2023/09/27 03:28:27;;;;;;;2.60;2.40;;;;;;;6.23;100.00;93518.31;2098145;28;20082;-83
2023/09/27 03:29:28;;;;;;;3.17;2.10;;;;;;;6.31;100.00;93519.84;2103110;27;20024;-83
2023/09/27 03:30:29;;;;;;;2.53;1.75;;;;;;;6.35;100.00;93511.91;2115226;28;20034;-81
2023/09/27 03:31:30;;;;;;;2.88;1.98;;;;;;;6.38;100.00;93519.13;2107782;28;20122;-83
2023/09/27 03:32:32;;;;;;;2.53;1.92;;;;;;;6.41;100.00;93523.66;2098214;28;20055;-81
2023/09/27 03:33:33;;;;;;;2.05;1.85;;;;;;;6.44;100.00;93523.66;2092782;28;20063;-82
2023/09/27 03:34:34;;;;;;;3.45;1.65;;;;;;;6.43;100.00;93526.69;2106537;28;20066;-82
2023/09/27 03:35:36;;;;;;;3.40;1.70;;;;;;;6.28;100.00;93528.59;2114915;28;20106;-83
2023/09/27 03:36:37;;;;;;;2.30;1.90;;;;;;;6.30;100.00;93528.97;2114921;28;20031;-82
2023/09/27 03:37:39;;;;;;;3.65;2.05;;;;;;;6.25;100.00;93532.00;2100038;28;20290;-83
2023/09/27 03:38:40;;;;;;;2.45;2.00;;;;;;;6.16;100.00;93532.34;2090306;28;20119;-82
2023/09/27 03:39:42;;;;;;;4.05;2.03;;;;;;;6.11;100.00;93526.66;2100768;28;20431;-83
2023/09/27 03:40:43;;;;;;;3.97;1.92;;;;;;;6.18;100.00;93526.66;2102350;28;20377;-83
2023/09/27 03:41:44;;;;;;;3.38;2.00;;;;;;;6.18;100.00;93527.41;2106543;28;20060;-83
2023/09/27 03:42:46;;;;;;;5.03;1.77;;;;;;;6.15;100.00;93522.88;2090006;28;20025;-83
2023/09/27 03:43:47;;;;;;;2.00;1.80;;;;;;;6.10;100.00;93525.13;2098424;28;20028;-81
2023/09/27 03:44:51;;;;;;;1.90;1.70;;;;;;;6.13;100.00;93530.44;2112738;28;20055;-83
2023/09/27 03:45:52;;;;;;;3.47;1.58;;;;;;;6.20;100.00;93535.03;2114387;28;20024;-82
2023/09/27 03:46:53;;;;;;;2.85;1.90;;;;;;;6.11;100.00;93526.66;2109250;28;20024;-81
2023/09/27 03:47:54;;;;;;;1.70;1.60;;;;;;;6.13;100.00;93543.72;2101865;28;20016;-81
2023/09/27 03:48:55;;;;;;;3.30;1.30;;;;;;;6.24;100.00;93533.13;2114918;28;20463;-83
2023/09/27 03:49:56;;;;;;;2.10;1.45;;;;;;;6.26;100.00;93530.84;2099488;28;20204;-82
2023/09/27 03:50:57;;;;;;;1.83;1.30;;;;;;;6.19;100.00;93544.88;2089876;28;20492;-83
2023/09/27 03:51:58;;;;;;;1.90;1.65;;;;;;;6.20;100.00;93543.00;2100299;28;20433;-81
2023/09/27 03:52:59;;;;;;;1.60;1.50;;;;;;;6.19;100.00;93538.78;2106201;28;20027;-83
2023/09/27 03:54:00;;;;;;;1.75;1.30;;;;;;;6.22;100.00;93546.00;2097954;28;20477;-81
2023/09/27 03:55:01;;;;;;;1.70;1.60;;;;;;;6.20;100.00;93540.34;2105595;28;20040;-81
2023/09/27 03:56:02;;;;;;;1.67;1.55;;;;;;;6.20;100.00;93541.09;2097855;28;20024;-82
2023/09/27 03:57:04;;;;;;;1.45;1.35;;;;;;;6.15;100.00;93543.38;2095414;28;20020;-82
2023/09/27 03:58:05;;;;;;;2.55;1.52;;;;;;;6.16;100.00;93535.00;2103785;27;20158;-83
2023/09/27 03:59:06;;;;;;;2.17;1.55;;;;;;;6.14;100.00;93541.81;2106488;28;20065;-83
2023/09/27 04:00:13;;;;;;;2.13;1.45;;;;;;;6.14;100.00;93544.47;2097363;28;20497;-81
2023/09/27 04:01:16;;;;;;;2.45;1.67;;;;;;;6.17;100.00;93535.78;2107172;28;20032;-81
2023/09/27 04:02:17;;;;;;;1.73;1.40;;;;;;;6.14;100.00;93541.81;2111375;28;20019;-81
2023/09/27 04:03:18;;;;;;;1.83;1.55;;;;;;;6.06;100.00;93541.06;2106374;28;20109;-83
2023/09/27 04:04:19;;;;;;;3.13;1.67;;;;;;;6.12;100.00;93550.16;2114726;28;20058;-84
2023/09/27 04:05:23;;;;;;;2.20;1.52;;;;;;;6.11;100.00;93540.69;2105611;28;20361;-82
2023/09/27 04:06:24;;;;;;;1.60;1.50;;;;;;;6.08;100.00;93548.66;2103349;28;20064;-82
2023/09/27 04:07:25;;;;;;;1.63;1.52;;;;;;;6.07;100.00;93539.16;2096734;28;20050;-83
2023/09/27 04:08:26;;;;;;;1.80;1.70;;;;;;;6.08;100.00;93540.69;2099774;28;20399;-83
2023/09/27 04:09:36;;;;;;;1.70;1.60;;;;;;;5.97;100.00;93535.34;2105452;28;20028;-84
2023/09/27 04:10:38;;;;;;;1.80;1.70;;;;;;;5.96;100.00;93539.13;2093208;28;20021;-81
2023/09/27 04:11:39;;;;;;;1.60;1.50;;;;;;;5.96;100.00;93536.47;2101604;28;20383;-82
2023/09/27 04:12:40;;;;;;;1.67;1.58;;;;;;;6.02;100.00;93537.66;2106499;28;20365;-81
2023/09/27 04:13:41;;;;;;;1.75;1.65;;;;;;;6.01;100.00;93538.75;2098228;28;20035;-82
2023/09/27 04:14:42;;;;;;;1.40;1.30;;;;;;;5.94;100.00;93542.16;2110820;28;20023;-81
2023/09/27 04:15:43;;;;;;;1.60;1.50;;;;;;;6.04;100.00;93536.13;2123353;27;20050;-81
2023/09/27 04:16:44;;;;;;;1.52;1.42;;;;;;;6.00;100.00;93543.31;2122303;27;20026;-81
2023/09/27 04:17:45;;;;;;;2.08;1.60;;;;;;;5.90;100.00;93538.72;2106275;28;20451;-82
2023/09/27 04:18:45;;;;;;;2.22;1.55;;;;;;;5.90;100.00;93537.97;2123480;27;20122;-82
2023/09/27 04:19:50;;;;;;;1.60;1.50;;;;;;;5.87;100.00;93542.13;2118578;27;20023;-83
2023/09/27 04:20:51;;;;;;;2.35;1.50;;;;;;;5.80;100.00;93539.47;2107134;28;20024;-81
2023/09/27 04:21:52;;;;;;;1.70;1.60;;;;;;;5.83;100.00;93544.00;2097960;28;20024;-82
2023/09/27 04:22:53;;;;;;;1.60;1.50;;;;;;;5.86;100.00;93548.56;2099157;28;20099;-81
2023/09/27 04:23:56;;;;;;;1.60;1.50;;;;;;;5.82;100.00;93553.09;2103181;28;20074;-81
2023/09/27 04:24:56;;;;;;;1.80;1.52;;;;;;;5.79;100.00;93541.34;2106428;27;20028;-83
2023/09/27 04:25:58;;;;;;;5.43;1.50;;;;;;;5.84;100.00;93542.09;2106418;28;20111;-83
2023/09/27 04:26:59;;;;;;;1.83;1.65;;;;;;;5.57;100.00;93539.72;2106267;28;20436;-82
2023/09/27 04:28:01;;;;;;;1.77;1.60;;;;;;;5.56;100.00;93538.22;2105974;27;20115;-82
2023/09/27 04:29:04;;;;;;;1.60;1.42;;;;;;;5.46;100.00;93538.94;2099226;28;20074;-82
2023/09/27 04:30:11;;;;;;;2.75;1.67;;;;;;;5.47;100.00;93537.81;2105614;28;20020;-82
2023/09/27 04:31:12;;;;;;;2.30;1.80;;;;;;;5.44;100.00;93533.25;2104482;28;20024;-82
2023/09/27 04:32:14;;;;;;;1.85;1.75;;;;;;;5.42;100.00;93535.50;2098039;28;20032;-82
2023/09/27 04:33:16;;;;;;;2.00;1.70;;;;;;;5.47;100.00;93535.91;2094349;28;20043;-82
2023/09/27 04:34:18;;;;;;;1.90;1.80;;;;;;;5.49;100.00;93533.66;2098247;28;20024;-81
2023/09/27 04:35:20;;;;;;;2.85;1.75;;;;;;;5.41;100.00;93528.69;2114492;28;20019;-81
2023/09/27 04:36:21;;;;;;;2.28;1.90;;;;;;;5.45;100.00;93530.22;2114036;28;20631;-82
2023/09/27 04:37:22;;;;;;;3.08;1.70;;;;;;;5.38;100.00;93534.72;2105607;28;20035;-81
2023/09/27 04:38:23;;;;;;;3.95;1.70;;;;;;;5.47;100.00;93533.25;2110574;28;20023;-82
2023/09/27 04:39:27;;;;;;;1.95;1.75;;;;;;;5.40;100.00;93533.25;2119366;27;20061;-82
2023/09/27 04:40:29;;;;;;;5.00;2.00;;;;;;;5.42;100.00;93536.28;2100098;28;20334;-81
2023/09/27 04:41:30;;;;;;;2.15;1.80;;;;;;;5.41;100.00;93534.75;2097688;28;20059;-82
2023/09/27 04:42:31;;;;;;;2.58;1.85;;;;;;;5.38;100.00;93545.34;2105994;28;20372;-82
2023/09/27 04:43:31;;;;;;;4.60;1.70;;;;;;;5.39;100.00;93539.66;2114447;28;20046;-83
2023/09/27 04:44:32;;;;;;;3.67;1.90;;;;;;;5.43;100.00;93535.13;2114067;28;20016;-81
2023/09/27 04:45:37;;;;;;;3.33;2.00;;;;;;;5.45;100.00;93543.50;2119955;27;20032;-82
2023/09/27 04:46:38;;;;;;;2.15;1.63;;;;;;;5.44;100.00;93544.59;2119568;27;20104;-83
2023/09/27 04:47:41;;;;;;;2.30;2.10;;;;;;;5.40;100.00;93545.72;2105703;28;20050;-83
2023/09/27 04:48:42;;;;;;;3.03;1.98;;;;;;;5.34;100.00;93547.97;2089667;28;20078;-83
2023/09/27 04:49:43;;;;;;;2.38;1.77;;;;;;;5.31;100.00;93540.75;2105670;28;20020;-83
2023/09/27 04:50:44;;;;;;;2.72;1.80;;;;;;;5.24;100.00;93549.44;2101661;28;20021;-83
2023/09/27 04:51:45;;;;;;;2.92;1.85;;;;;;;5.18;100.00;93544.84;2103962;28;20383;-81